createdAt,value
2018-08-03T00:01:51.251Z,4.13
2018-08-03T00:04:20.519Z,4.57
2018-08-03T00:06:49.823Z,5.10
2018-08-03T00:09:19.144Z,5.03
2018-08-03T00:11:48.415Z,5.00
2018-08-03T00:14:17.748Z,4.60
2018-08-03T00:16:47.569Z,4.93
2018-08-03T00:19:16.838Z,5.17
2018-08-03T00:21:46.114Z,5.17
2018-08-03T00:24:15.421Z,5.13
2018-08-03T00:26:44.661Z,5.20
2018-08-03T00:29:13.930Z,4.83
2018-08-03T00:31:43.226Z,5.00
2018-08-03T00:34:12.519Z,5.37
2018-08-03T00:36:41.804Z,6.70
2018-08-03T00:39:12.114Z,5.10
2018-08-03T00:41:41.438Z,5.37
2018-08-03T00:44:10.687Z,5.20
2018-08-03T00:46:39.978Z,4.90
2018-08-03T00:49:09.399Z,5.70
2018-08-03T00:51:38.653Z,5.30
2018-08-03T00:54:07.954Z,5.60
2018-08-03T00:56:37.242Z,5.67
2018-08-03T00:59:06.518Z,5.20
2018-08-03T01:01:35.805Z,6.27
2018-08-03T01:04:05.115Z,5.30
2018-08-03T01:06:34.444Z,5.70
2018-08-03T01:09:04.245Z,5.93
2018-08-03T01:11:33.482Z,5.23
2018-08-03T01:14:02.748Z,5.93
2018-08-03T01:16:35.346Z,6.17
2018-08-03T01:19:04.682Z,5.20
2018-08-03T01:21:34.047Z,6.00
2018-08-03T01:24:03.910Z,6.20
2018-08-03T01:26:33.217Z,5.80
2018-08-03T01:29:02.639Z,6.00
2018-08-03T01:31:31.986Z,6.20
2018-08-03T01:34:01.426Z,5.90
2018-08-03T01:36:30.761Z,6.23
2018-08-03T01:39:00.103Z,5.63
2018-08-03T01:41:29.397Z,6.30
2018-08-03T01:43:58.705Z,5.70
2018-08-03T01:46:28.226Z,5.60
2018-08-03T01:48:57.483Z,6.60
2018-08-03T01:51:26.725Z,5.80
2018-08-03T01:53:56.007Z,6.87
2018-08-03T01:56:25.273Z,6.23
2018-08-03T01:58:54.589Z,6.77
2018-08-03T02:01:23.950Z,7.17
2018-08-03T02:03:53.184Z,6.40
2018-08-03T02:06:22.498Z,6.47
2018-08-03T02:08:52.307Z,7.27
2018-08-03T02:11:21.602Z,6.07
2018-08-03T02:13:51.031Z,7.50
2018-08-03T02:16:20.345Z,6.37
2018-08-03T02:18:49.651Z,6.80
2018-08-03T02:21:18.942Z,8.03
2018-08-03T02:23:48.246Z,7.77
2018-08-03T02:26:17.529Z,7.13
2018-08-03T02:28:46.810Z,7.07
2018-08-03T02:31:16.665Z,7.20
2018-08-03T02:33:45.940Z,7.60
2018-08-03T02:36:15.194Z,7.50
2018-08-03T02:38:44.507Z,7.43
2018-08-03T02:41:13.834Z,7.03
2018-08-03T02:43:43.141Z,6.80
2018-08-03T02:46:12.460Z,7.17
2018-08-03T02:48:41.722Z,7.67
2018-08-03T02:51:10.971Z,7.57
2018-08-03T02:53:40.397Z,7.43
2018-08-03T02:56:09.756Z,8.73
2018-08-03T02:58:39.015Z,7.80
2018-08-03T03:01:08.832Z,8.70
2018-08-03T03:03:38.107Z,8.10
2018-08-03T03:06:07.549Z,7.93
2018-08-03T03:08:36.865Z,8.53
2018-08-03T03:11:06.181Z,8.37
2018-08-03T03:13:35.561Z,8.50
2018-08-03T03:16:05.065Z,8.83
2018-08-03T03:18:34.315Z,8.27
2018-08-03T03:21:03.591Z,8.90
2018-08-03T03:23:32.882Z,8.90
2018-08-03T03:26:02.162Z,9.80
2018-08-03T03:28:31.457Z,8.93
2018-08-03T03:31:00.739Z,8.87
2018-08-03T03:33:30.045Z,7.80
2018-08-03T03:35:59.319Z,9.53
2018-08-03T03:38:28.658Z,9.37
2018-08-03T03:40:57.941Z,8.70
2018-08-03T03:43:27.208Z,9.30
2018-08-03T03:45:56.508Z,8.50
2018-08-03T03:48:25.808Z,8.53
2018-08-03T03:50:55.112Z,8.80
2018-08-03T03:53:24.450Z,8.50
2018-08-03T03:55:53.894Z,8.77
2018-08-03T03:58:23.132Z,8.70
2018-08-03T04:00:52.935Z,8.60
2018-08-03T04:03:22.188Z,8.07
2018-08-03T04:05:51.494Z,8.80
2018-08-03T04:08:20.803Z,8.40
2018-08-03T04:10:50.117Z,8.30
2018-08-03T04:13:19.374Z,7.90
2018-08-03T04:15:48.721Z,8.30
2018-08-03T04:18:20.501Z,8.10
2018-08-03T04:20:50.790Z,9.10
2018-08-03T04:23:20.349Z,9.60
2018-08-03T04:25:49.741Z,8.47
2018-08-03T04:28:19.033Z,9.13
2018-08-03T04:30:48.311Z,9.43
2018-08-03T04:33:17.557Z,9.60
2018-08-03T04:35:46.850Z,9.40
2018-08-03T04:38:16.170Z,9.17
2018-08-03T04:40:45.405Z,10.37
2018-08-03T04:43:14.867Z,8.93
2018-08-03T04:45:44.158Z,9.60
2018-08-03T04:48:13.425Z,9.40
2018-08-03T04:50:42.668Z,8.67
2018-08-03T04:53:11.985Z,8.00
2018-08-03T04:55:41.258Z,8.77
2018-08-03T04:58:10.528Z,8.70
2018-08-03T05:00:39.808Z,8.27
2018-08-03T05:03:09.086Z,9.53
2018-08-03T05:05:38.448Z,9.13
2018-08-03T05:08:07.711Z,8.20
2018-08-03T05:10:37.024Z,9.00
2018-08-03T05:13:06.389Z,8.43
2018-08-03T05:15:35.698Z,10.43
2018-08-03T05:18:04.948Z,8.30
2018-08-03T05:20:34.209Z,8.27
2018-08-03T05:23:03.517Z,8.47
2018-08-03T05:25:32.808Z,8.30
2018-08-03T05:28:02.338Z,7.60
2018-08-03T05:30:31.599Z,8.00
2018-08-03T05:33:00.911Z,8.30
2018-08-03T05:35:30.337Z,7.63
2018-08-03T05:37:59.577Z,8.33
2018-08-03T05:40:28.839Z,7.60
2018-08-03T05:42:58.094Z,7.60
2018-08-03T05:45:27.448Z,7.00
2018-08-03T05:47:56.683Z,8.27
2018-08-03T05:50:26.285Z,6.30
2018-08-03T05:52:55.555Z,10.13
2018-08-03T05:55:25.016Z,7.23
2018-08-03T05:57:54.338Z,7.20
2018-08-03T06:00:24.014Z,7.37
2018-08-03T06:02:53.324Z,6.13
2018-08-03T06:05:22.616Z,7.20
2018-08-03T06:07:51.893Z,6.00
2018-08-03T06:10:21.251Z,6.30
2018-08-03T06:12:50.852Z,6.03
2018-08-03T06:15:20.104Z,6.90
2018-08-03T06:17:49.394Z,5.97
2018-08-03T06:20:18.780Z,5.87
2018-08-03T06:22:48.095Z,6.43
2018-08-03T06:25:17.479Z,5.47
2018-08-03T06:27:46.844Z,5.50
2018-08-03T06:30:16.292Z,5.67
2018-08-03T06:32:45.570Z,5.87
2018-08-03T06:35:15.393Z,5.47
2018-08-03T06:37:44.698Z,5.50
2018-08-03T06:40:14.072Z,5.90
2018-08-03T06:42:43.508Z,5.33
2018-08-03T06:45:12.809Z,5.47
2018-08-03T06:47:42.044Z,5.17
2018-08-03T06:50:11.382Z,4.73
2018-08-03T06:52:40.675Z,4.77
2018-08-03T06:55:10.013Z,5.10
2018-08-03T06:57:39.824Z,4.70
2018-08-03T07:00:09.190Z,5.20
2018-08-03T07:02:38.494Z,4.60
2018-08-03T07:05:07.846Z,4.53
2018-08-03T07:07:37.271Z,4.50
2018-08-03T07:10:06.870Z,4.67
2018-08-03T07:12:36.234Z,4.77
2018-08-03T07:15:06.551Z,4.40
2018-08-03T07:17:36.594Z,4.70
2018-08-03T07:20:06.969Z,4.70
2018-08-03T07:22:36.202Z,4.30
2018-08-03T07:25:05.738Z,3.90
2018-08-03T07:27:35.075Z,4.33
2018-08-03T07:30:05.340Z,4.80
2018-08-03T07:32:34.646Z,4.10
2018-08-03T07:35:04.396Z,4.10
2018-08-03T07:37:33.808Z,3.93
2018-08-03T07:40:03.221Z,4.37
2018-08-03T07:42:32.858Z,4.30
2018-08-03T07:45:02.285Z,4.30
2018-08-03T07:47:32.616Z,4.10
2018-08-03T07:50:02.051Z,4.30
2018-08-03T07:52:31.430Z,3.97
2018-08-03T07:55:00.410Z,3.63
2018-08-03T07:57:30.010Z,4.70
2018-08-03T07:59:59.290Z,4.77
2018-08-03T08:02:28.601Z,3.67
2018-08-03T08:04:58.155Z,3.87
2018-08-03T08:07:27.449Z,4.17
2018-08-03T08:09:56.754Z,4.73
2018-08-03T08:12:26.123Z,3.50
2018-08-03T08:14:55.430Z,3.13
2018-08-03T08:17:24.921Z,3.60
2018-08-03T08:19:54.336Z,4.10
2018-08-03T08:22:23.627Z,4.30
2018-08-03T08:24:52.955Z,3.90
2018-08-03T08:27:22.603Z,3.93
2018-08-03T08:29:51.855Z,3.60
2018-08-03T08:32:21.165Z,3.63
2018-08-03T08:34:50.468Z,3.73
2018-08-03T08:37:19.761Z,3.70
2018-08-03T08:39:49.027Z,3.80
2018-08-03T08:42:18.327Z,3.83
2018-08-03T08:44:47.569Z,3.80
2018-08-03T08:47:16.896Z,4.07
2018-08-03T08:49:46.500Z,4.20
2018-08-03T08:52:15.805Z,3.40
2018-08-03T08:54:45.160Z,3.97
2018-08-03T08:57:14.433Z,3.70
2018-08-03T08:59:43.774Z,3.40
2018-08-03T09:02:13.009Z,4.10
2018-08-03T09:04:42.336Z,4.40
2018-08-03T09:07:11.675Z,3.53
2018-08-03T09:09:40.932Z,4.00
2018-08-03T09:12:10.442Z,3.73
2018-08-03T09:14:39.751Z,3.20
2018-08-03T09:17:08.940Z,3.80
2018-08-03T09:19:38.240Z,3.17
2018-08-03T09:22:07.621Z,3.80
2018-08-03T09:24:36.873Z,3.13
2018-08-03T09:27:06.254Z,3.10
2018-08-03T09:29:35.545Z,2.90
2018-08-03T09:32:05.215Z,3.30
2018-08-03T09:34:34.893Z,3.40
2018-08-03T09:37:04.222Z,2.90
2018-08-03T09:39:33.509Z,3.50
2018-08-03T09:42:02.821Z,3.23
2018-08-03T09:44:32.114Z,3.30
2018-08-03T09:47:01.451Z,3.57
2018-08-03T09:49:30.966Z,2.87
2018-08-03T09:52:00.229Z,3.17
2018-08-03T09:54:29.513Z,3.10
2018-08-03T09:56:59.187Z,3.00
2018-08-03T09:59:28.455Z,3.17
2018-08-03T10:01:57.739Z,3.20
2018-08-03T10:04:27.070Z,3.50
2018-08-03T10:06:56.388Z,2.80
2018-08-03T10:09:25.701Z,3.00
2018-08-03T10:11:55.001Z,3.30
2018-08-03T10:14:24.310Z,2.90
2018-08-03T10:16:53.636Z,2.97
2018-08-03T10:19:23.141Z,2.90
2018-08-03T10:21:52.559Z,2.90
2018-08-03T10:24:21.825Z,3.40
2018-08-03T10:26:51.126Z,3.10
2018-08-03T10:29:20.680Z,3.03
2018-08-03T10:31:49.957Z,2.97
2018-08-03T10:34:19.517Z,3.10
2018-08-03T10:36:48.785Z,3.03
2018-08-03T10:39:18.054Z,3.30
2018-08-03T10:41:47.451Z,3.27
2018-08-03T10:44:16.491Z,2.97
2018-08-03T10:46:45.623Z,3.30
2018-08-03T10:49:14.948Z,3.10
2018-08-03T10:51:44.239Z,3.20
2018-08-03T10:54:13.559Z,3.10
2018-08-03T10:56:42.910Z,2.83
2018-08-03T10:59:12.252Z,2.80
2018-08-03T11:01:41.596Z,2.73
2018-08-03T11:04:10.925Z,3.43
2018-08-03T11:06:40.223Z,2.73
2018-08-03T11:09:10.492Z,2.90
2018-08-03T11:11:39.855Z,3.33
2018-08-03T11:14:09.163Z,2.50
2018-08-03T11:16:38.438Z,3.30
2018-08-03T11:19:07.810Z,2.87
2018-08-03T11:21:37.074Z,2.60
2018-08-03T11:24:06.460Z,3.20
2018-08-03T11:26:36.205Z,2.77
2018-08-03T11:29:05.453Z,2.90
2018-08-03T11:31:34.777Z,2.83
2018-08-03T11:34:04.119Z,2.90
2018-08-03T11:36:33.395Z,3.07
2018-08-03T11:39:02.416Z,3.80
2018-08-03T11:41:31.750Z,3.10
2018-08-03T11:44:01.050Z,2.50
2018-08-03T11:46:30.345Z,2.77
2018-08-03T11:48:59.995Z,3.57
2018-08-03T11:51:29.319Z,3.03
2018-08-03T11:53:58.689Z,2.80
2018-08-03T11:56:27.961Z,3.63
2018-08-03T11:58:57.253Z,2.80
2018-08-03T12:01:26.530Z,2.67
2018-08-03T12:03:55.955Z,2.80
2018-08-03T12:06:25.222Z,2.50
2018-08-03T12:08:54.525Z,2.67
2018-08-03T12:11:24.017Z,3.03
2018-08-03T12:13:53.264Z,2.70
2018-08-03T12:16:22.586Z,3.23
2018-08-03T12:18:52.045Z,2.77
2018-08-03T12:21:21.306Z,2.53
2018-08-03T12:23:50.586Z,2.43
2018-08-03T12:26:19.886Z,2.50
2018-08-03T12:28:49.175Z,2.70
2018-08-03T12:31:18.535Z,2.37
2018-08-03T12:33:48.424Z,2.90
2018-08-03T12:36:17.684Z,2.60
2018-08-03T12:38:46.959Z,2.87
2018-08-03T12:41:16.286Z,2.20
2018-08-03T12:43:45.630Z,2.97
2018-08-03T12:46:14.902Z,2.83
2018-08-03T12:48:44.247Z,2.80
2018-08-03T12:51:13.293Z,3.03
2018-08-03T12:53:42.561Z,3.03
2018-08-03T12:56:12.346Z,2.93
2018-08-03T12:58:41.378Z,2.90
2018-08-03T13:01:10.752Z,2.63
2018-08-03T13:03:40.000Z,2.70
2018-08-03T13:06:09.271Z,2.97
2018-08-03T13:08:38.609Z,2.70
2018-08-03T13:11:07.935Z,3.10
2018-08-03T13:13:37.208Z,2.77
2018-08-03T13:16:06.566Z,3.20
2018-08-03T13:18:35.981Z,2.83
2018-08-03T13:21:42.474Z,3.07
2018-08-03T13:24:11.807Z,3.20
2018-08-03T13:26:41.137Z,3.17
2018-08-03T13:29:10.199Z,2.93
2018-08-03T13:31:39.531Z,2.63
2018-08-03T13:34:08.853Z,2.90
2018-08-03T13:36:38.125Z,3.20
2018-08-03T13:39:09.710Z,2.90
2018-08-03T13:41:38.980Z,2.80
2018-08-03T13:44:08.296Z,2.53
2018-08-03T13:46:37.638Z,2.70
2018-08-03T13:49:06.951Z,2.50
2018-08-03T13:51:36.230Z,3.00
2018-08-03T13:54:05.543Z,3.27
2018-08-03T13:56:35.112Z,2.10
2018-08-03T13:59:04.199Z,2.73
2018-08-03T14:02:41.943Z,2.83
2018-08-03T14:05:13.089Z,2.80
2018-08-03T14:07:42.422Z,2.90
2018-08-03T14:10:11.785Z,2.90
2018-08-03T14:12:41.078Z,2.43
2018-08-03T14:15:10.374Z,2.80
2018-08-03T14:17:39.443Z,2.70
2018-08-03T14:20:08.780Z,2.77
2018-08-03T14:22:38.116Z,2.90
2018-08-03T14:25:07.753Z,2.93
2018-08-03T14:27:37.112Z,3.80
2018-08-03T14:30:07.986Z,3.00
2018-08-03T14:32:37.295Z,3.67
2018-08-03T14:35:06.747Z,3.03
2018-08-03T14:37:36.013Z,2.80
2018-08-03T14:40:05.580Z,2.73
2018-08-03T14:42:34.851Z,3.00
2018-08-03T14:45:04.206Z,2.90
2018-08-03T14:47:34.740Z,2.77
2018-08-03T14:50:04.513Z,2.87
2018-08-03T14:52:33.804Z,3.30
2018-08-03T14:55:03.193Z,2.90
2018-08-03T14:57:32.458Z,2.70
2018-08-03T15:00:01.776Z,2.57
2018-08-03T15:02:31.111Z,3.17
2018-08-03T15:05:00.410Z,3.20
2018-08-03T15:07:29.824Z,2.87
2018-08-03T15:09:59.543Z,3.20
2018-08-03T15:12:28.864Z,3.23
2018-08-03T15:14:58.158Z,3.30
2018-08-03T15:17:27.594Z,3.00
2018-08-03T15:19:56.904Z,3.27
2018-08-03T15:22:26.710Z,3.60
2018-08-03T15:24:55.845Z,3.30
2018-08-03T15:27:25.091Z,3.20
2018-08-03T15:29:54.401Z,3.10
2018-08-03T15:32:24.025Z,3.07
2018-08-03T15:34:53.345Z,2.90
2018-08-03T15:37:22.637Z,3.00
2018-08-03T15:39:51.952Z,3.00
2018-08-03T15:42:21.257Z,3.53
2018-08-03T15:44:50.578Z,3.10
2018-08-03T15:47:19.882Z,2.90
2018-08-03T15:49:49.176Z,3.07
2018-08-03T15:52:22.116Z,3.13
2018-08-03T15:54:52.170Z,3.37
2018-08-03T15:57:21.497Z,3.10
2018-08-03T15:59:50.828Z,3.07
2018-08-03T16:02:20.092Z,3.50
2018-08-03T16:04:49.337Z,3.23
2018-08-03T16:07:18.422Z,3.03
2018-08-03T16:09:47.783Z,3.23
2018-08-03T16:12:17.704Z,3.20
2018-08-03T16:14:47.401Z,2.67
2018-08-03T16:17:16.708Z,3.63
2018-08-03T16:19:45.964Z,2.70
2018-08-03T16:22:15.078Z,3.40
2018-08-03T16:24:44.332Z,3.60
2018-08-03T16:27:13.622Z,3.30
2018-08-03T16:29:42.904Z,2.50
2018-08-03T16:32:12.193Z,3.00
2018-08-03T16:34:41.607Z,2.80
2018-08-03T16:37:10.939Z,2.97
2018-08-03T16:39:40.207Z,3.80
2018-08-03T16:42:09.537Z,2.97
2018-08-03T16:44:39.193Z,3.10
2018-08-03T16:47:08.460Z,3.10
2018-08-03T16:49:37.778Z,3.93
2018-08-03T16:52:06.943Z,3.50
2018-08-03T16:54:36.175Z,3.00
2018-08-03T16:57:05.515Z,2.97
2018-08-03T16:59:35.187Z,3.13
2018-08-03T17:02:04.547Z,3.43
2018-08-03T17:04:33.874Z,2.70
2018-08-03T17:07:03.149Z,3.60
2018-08-03T17:09:32.438Z,3.03
2018-08-03T17:12:01.824Z,3.17
2018-08-03T17:14:31.181Z,3.30
2018-08-03T17:17:00.485Z,3.20
2018-08-03T17:19:29.926Z,2.80
2018-08-03T17:21:59.350Z,3.93
2018-08-03T17:24:28.643Z,3.13
2018-08-03T17:26:57.926Z,3.67
2018-08-03T17:29:27.219Z,3.30
2018-08-03T17:31:56.366Z,2.90
2018-08-03T17:34:25.341Z,3.27
2018-08-03T17:36:54.669Z,3.63
2018-08-03T17:39:23.894Z,3.53
2018-08-03T17:41:53.133Z,3.03
2018-08-03T17:44:22.759Z,3.50
2018-08-03T17:46:52.039Z,3.80
2018-08-03T17:49:21.288Z,3.50
2018-08-03T17:51:50.609Z,3.83
2018-08-03T17:54:19.719Z,4.17
2018-08-03T17:56:49.012Z,4.40
2018-08-03T17:59:18.543Z,5.47
2018-08-03T18:01:47.874Z,4.87
2018-08-03T18:04:17.275Z,5.60
2018-08-03T18:06:46.992Z,5.60
2018-08-03T18:09:16.459Z,6.10
2018-08-03T18:11:45.717Z,5.60
2018-08-03T18:14:15.108Z,5.43
2018-08-03T18:16:44.578Z,5.90
2018-08-03T18:19:13.899Z,5.50
2018-08-03T18:21:43.305Z,5.83
2018-08-03T18:24:12.599Z,6.10
2018-08-03T18:26:41.876Z,6.00
2018-08-03T18:29:11.475Z,5.77
2018-08-03T18:31:40.675Z,5.80
2018-08-03T18:34:10.074Z,5.70
2018-08-03T18:36:39.470Z,6.20
2018-08-03T18:39:10.402Z,6.37
2018-08-03T18:41:39.681Z,6.60
2018-08-03T18:44:08.974Z,6.00
2018-08-03T18:46:38.269Z,6.97
2018-08-03T18:49:07.599Z,7.10
2018-08-03T18:51:38.458Z,6.60
2018-08-03T18:54:07.815Z,5.27
2018-08-03T18:56:37.191Z,6.23
2018-08-03T18:59:07.177Z,5.60
2018-08-03T19:01:36.469Z,6.40
2018-08-03T19:04:05.839Z,5.70
2018-08-03T19:06:35.167Z,6.87
2018-08-03T19:09:06.019Z,6.70
2018-08-03T19:11:35.311Z,6.60
2018-08-03T19:14:04.734Z,6.17
2018-08-03T19:16:34.052Z,6.13
2018-08-03T19:19:03.362Z,5.97
2018-08-03T19:21:32.734Z,5.90
2018-08-03T19:24:02.040Z,6.07
2018-08-03T19:26:31.300Z,5.53
2018-08-03T19:29:00.707Z,6.00
2018-08-03T19:31:29.983Z,6.17
2018-08-03T19:33:59.304Z,5.93
2018-08-03T19:36:28.913Z,5.50
2018-08-03T19:38:58.235Z,6.17
2018-08-03T19:41:27.593Z,6.47
2018-08-03T19:43:57.049Z,6.10
2018-08-03T19:46:26.350Z,5.93
2018-08-03T19:48:55.735Z,5.40
2018-08-03T19:51:25.026Z,10.47
2018-08-03T19:53:54.359Z,6.40
2018-08-03T19:56:23.607Z,6.37
2018-08-03T19:58:53.180Z,5.87
2018-08-03T20:01:22.478Z,6.87
2018-08-03T20:03:51.815Z,8.37
2018-08-03T20:06:21.132Z,8.50
2018-08-03T20:08:50.401Z,7.07
2018-08-03T20:11:19.709Z,5.90
2018-08-03T20:13:49.176Z,6.27
2018-08-03T20:16:18.630Z,5.97
2018-08-03T20:18:47.911Z,6.03
2018-08-03T20:21:17.532Z,6.60
2018-08-03T20:23:46.884Z,6.07
2018-08-03T20:26:16.159Z,6.33
2018-08-03T20:28:45.525Z,5.50
2018-08-03T20:31:14.936Z,6.60
2018-08-03T20:33:44.571Z,6.50
2018-08-03T20:36:14.054Z,6.80
2018-08-03T20:38:43.362Z,7.03
2018-08-03T20:41:12.676Z,7.97
2018-08-03T20:43:42.526Z,8.10
2018-08-03T20:46:11.843Z,6.50
2018-08-03T20:48:41.157Z,6.10
2018-08-03T20:51:10.464Z,6.40
2018-08-03T20:53:39.784Z,6.60
2018-08-03T20:56:09.194Z,6.60
2018-08-03T20:58:38.633Z,6.20
2018-08-03T21:01:07.735Z,7.07
2018-08-03T21:03:37.109Z,7.90
2018-08-03T21:06:06.924Z,7.30
2018-08-03T21:08:36.161Z,7.53
2018-08-03T21:11:05.479Z,7.83
2018-08-03T21:13:34.815Z,8.53
2018-08-03T21:16:04.118Z,8.73
2018-08-03T21:18:33.424Z,6.80
2018-08-03T21:21:02.741Z,7.07
2018-08-03T21:23:32.055Z,7.50
2018-08-03T21:26:01.103Z,7.67
2018-08-03T21:28:30.660Z,7.60
2018-08-03T21:30:59.958Z,8.43
2018-08-03T21:33:29.254Z,6.40
2018-08-03T21:35:58.591Z,7.00
2018-08-03T21:38:27.882Z,6.63
2018-08-03T21:40:57.198Z,7.10
2018-08-03T21:43:26.483Z,6.73
2018-08-03T21:45:55.769Z,6.13
2018-08-03T21:48:24.821Z,6.93
2018-08-03T21:50:55.860Z,6.60
2018-08-03T21:53:26.350Z,6.70
2018-08-03T21:55:55.665Z,6.73
2018-08-03T21:58:24.992Z,6.80
2018-08-03T22:00:54.257Z,6.33
2018-08-03T22:03:23.624Z,7.50
2018-08-03T22:05:52.943Z,8.00
2018-08-03T22:08:22.226Z,8.50
2018-08-03T22:10:51.935Z,6.80
2018-08-03T22:13:22.312Z,7.60
2018-08-03T22:15:51.628Z,7.43
2018-08-03T22:18:20.903Z,6.17
2018-08-03T22:20:50.203Z,6.40
2018-08-03T22:23:21.502Z,5.90
2018-08-03T22:25:50.855Z,7.03
2018-08-03T22:28:20.407Z,6.00
2018-08-03T22:30:49.698Z,6.40
2018-08-03T22:33:19.958Z,6.27
2018-08-03T22:35:49.286Z,6.37
2018-08-03T22:38:18.677Z,5.27
2018-08-03T22:40:47.977Z,5.37
2018-08-03T22:43:17.285Z,5.53
2018-08-03T22:45:46.589Z,5.03
2018-08-03T22:48:16.021Z,5.03
2018-08-03T22:50:45.294Z,5.93
2018-08-03T22:53:14.612Z,4.87
2018-08-03T22:55:44.060Z,5.07
2018-08-03T22:58:13.359Z,5.80
2018-08-03T23:00:42.658Z,4.60
2018-08-03T23:03:11.942Z,4.90
2018-08-03T23:05:41.207Z,5.50
2018-08-03T23:08:10.752Z,5.40
2018-08-03T23:10:40.099Z,5.07
2018-08-03T23:13:09.628Z,4.80
2018-08-03T23:15:38.914Z,5.03
2018-08-03T23:18:08.521Z,4.50
2018-08-03T23:20:37.825Z,4.57
2018-08-03T23:23:07.349Z,5.53
2018-08-03T23:25:36.647Z,6.40
2018-08-03T23:28:05.932Z,5.53
2018-08-03T23:30:35.226Z,4.77
2018-08-03T23:33:04.507Z,4.47
2018-08-03T23:35:34.327Z,4.77
2018-08-03T23:38:03.651Z,4.83
2018-08-03T23:40:33.326Z,5.97
2018-08-03T23:43:03.710Z,5.00
2018-08-03T23:45:33.119Z,5.60
2018-08-03T23:48:02.615Z,5.87
2018-08-03T23:50:33.293Z,5.97
2018-08-03T23:53:02.585Z,6.30
2018-08-03T23:55:31.879Z,5.00
2018-08-03T23:58:01.200Z,5.53
